createdAt,value
2023-01-13T00:00:20.110Z,2.31
2023-01-13T00:01:24.141Z,1.96
2023-01-13T00:02:25.949Z,2.30
2023-01-13T00:03:27.876Z,2.31
2023-01-13T00:04:30.505Z,2.19
2023-01-13T00:05:32.543Z,2.48
2023-01-13T00:06:34.299Z,1.87
2023-01-13T00:07:35.987Z,2.26
2023-01-13T00:08:37.644Z,2.35
2023-01-13T00:09:39.341Z,2.26
2023-01-13T00:10:41.066Z,2.51
2023-01-13T00:11:42.910Z,2.53
2023-01-13T00:12:44.635Z,2.28
2023-01-13T00:13:46.411Z,2.38
2023-01-13T00:14:48.099Z,2.29
2023-01-13T00:15:59.888Z,2.05
2023-01-13T00:17:02.481Z,2.42
2023-01-13T00:18:04.210Z,2.33
2023-01-13T00:19:05.893Z,2.45
2023-01-13T00:20:08.391Z,2.46
2023-01-13T00:21:16.074Z,2.26
2023-01-13T00:22:17.870Z,2.23
2023-01-13T00:23:19.594Z,2.46
2023-01-13T00:24:21.508Z,2.20
2023-01-13T00:25:23.191Z,2.33
2023-01-13T00:26:28.419Z,1.40
2023-01-13T00:27:30.552Z,1.16
2023-01-13T00:28:32.872Z,2.47
2023-01-13T00:29:34.599Z,1.93
2023-01-13T00:30:36.409Z,2.41
2023-01-13T00:31:38.119Z,2.46
2023-01-13T00:32:39.880Z,2.49
2023-01-13T00:33:41.812Z,2.28
2023-01-13T00:34:43.533Z,2.43
2023-01-13T00:35:45.387Z,2.43
2023-01-13T00:36:47.232Z,2.38
2023-01-13T00:37:48.867Z,2.15
2023-01-13T00:38:50.613Z,2.49
2023-01-13T00:39:52.809Z,2.52
2023-01-13T00:41:06.065Z,2.48
2023-01-13T00:42:08.385Z,1.32
2023-01-13T00:43:10.067Z,2.49
2023-01-13T00:44:11.716Z,2.50
2023-01-13T00:45:13.372Z,2.54
2023-01-13T00:46:18.180Z,1.65
2023-01-13T00:47:19.852Z,2.27
2023-01-13T00:48:23.145Z,2.25
2023-01-13T00:49:24.969Z,2.27
2023-01-13T00:50:26.599Z,2.41
2023-01-13T00:51:28.288Z,2.44
2023-01-13T00:52:32.432Z,2.57
2023-01-13T00:53:39.509Z,2.59
2023-01-13T00:54:41.205Z,1.54
2023-01-13T00:55:42.928Z,2.66
2023-01-13T00:56:44.658Z,2.53
2023-01-13T00:57:46.535Z,2.58
2023-01-13T00:58:48.213Z,2.53
2023-01-13T00:59:49.839Z,2.05
2023-01-13T01:00:51.587Z,2.35
2023-01-13T01:01:53.438Z,2.55
2023-01-13T01:02:55.292Z,0.79
2023-01-13T01:03:56.970Z,2.38
2023-01-13T01:04:58.593Z,2.47
2023-01-13T01:06:09.727Z,1.66
2023-01-13T01:07:11.434Z,2.37
2023-01-13T01:08:13.148Z,2.34
2023-01-13T01:09:16.150Z,1.35
2023-01-13T01:10:17.875Z,2.16
2023-01-13T01:11:23.202Z,2.07
2023-01-13T01:12:24.879Z,2.27
2023-01-13T01:13:26.552Z,1.76
2023-01-13T01:14:28.481Z,1.96
2023-01-13T01:15:30.223Z,2.24
2023-01-13T01:16:33.442Z,2.30
2023-01-13T01:17:35.413Z,1.38
2023-01-13T01:18:39.897Z,2.27
2023-01-13T01:19:41.572Z,1.60
2023-01-13T01:20:43.235Z,2.23
2023-01-13T01:21:45.045Z,2.10
2023-01-13T01:22:46.731Z,2.22
2023-01-13T01:23:48.754Z,1.77
2023-01-13T01:24:50.356Z,2.04
2023-01-13T01:25:52.014Z,1.97
2023-01-13T01:26:54.008Z,2.04
2023-01-13T01:27:55.755Z,2.18
2023-01-13T01:28:57.468Z,2.09
2023-01-13T01:29:59.104Z,1.38
2023-01-13T01:31:05.616Z,1.94
2023-01-13T01:32:07.331Z,1.94
2023-01-13T01:33:08.964Z,2.25
2023-01-13T01:34:11.150Z,2.30
2023-01-13T01:35:12.779Z,1.37
2023-01-13T01:36:16.686Z,2.40
2023-01-13T01:37:18.439Z,2.01
2023-01-13T01:38:20.756Z,2.13
2023-01-13T01:39:22.482Z,2.10
2023-01-13T01:40:24.180Z,2.46
2023-01-13T01:41:28.787Z,2.33
2023-01-13T01:42:30.560Z,2.29
2023-01-13T01:44:05.300Z,2.16
2023-01-13T01:45:20.786Z,2.48
2023-01-13T01:46:22.452Z,1.90
2023-01-13T01:47:25.538Z,2.58
2023-01-13T01:48:29.625Z,2.61
2023-01-13T01:49:36.908Z,2.64
2023-01-13T01:50:40.066Z,2.42
2023-01-13T01:51:49.876Z,2.64
2023-01-13T01:52:59.752Z,2.80
2023-01-13T01:54:04.347Z,2.76
2023-01-13T01:55:18.203Z,1.84
2023-01-13T01:56:21.085Z,2.78
2023-01-13T01:57:39.565Z,2.11
2023-01-13T01:58:48.892Z,2.42
2023-01-13T01:59:50.880Z,2.77
2023-01-13T02:00:52.748Z,2.69
2023-01-13T02:01:54.885Z,2.31
2023-01-13T02:02:57.413Z,1.72
2023-01-13T02:04:05.646Z,2.64
2023-01-13T02:05:07.766Z,2.68
2023-01-13T02:07:28.505Z,1.83
2023-01-13T02:08:30.580Z,2.53
2023-01-13T02:09:33.326Z,2.38
2023-01-13T02:10:36.342Z,2.58
2023-01-13T02:11:38.282Z,1.27
2023-01-13T02:12:42.308Z,2.43
2023-01-13T02:13:43.947Z,2.51
2023-01-13T02:14:45.782Z,2.43
2023-01-13T02:16:03.463Z,2.42
2023-01-13T02:17:08.092Z,2.41
2023-01-13T02:18:32.660Z,2.39
2023-01-13T02:19:52.760Z,2.42
2023-01-13T02:21:18.173Z,2.49
2023-01-13T02:22:37.645Z,2.45
2023-01-13T02:23:57.692Z,2.48
2023-01-13T02:25:15.286Z,2.50
2023-01-13T02:26:34.906Z,2.40
2023-01-13T02:27:44.302Z,2.49
2023-01-13T02:29:10.640Z,2.46
2023-01-13T02:30:42.873Z,2.46
2023-01-13T02:31:48.619Z,2.25
2023-01-13T02:33:42.393Z,2.42
2023-01-13T02:34:55.375Z,2.40
2023-01-13T02:36:35.455Z,2.39
2023-01-13T02:37:40.706Z,2.39
2023-01-13T02:38:56.717Z,2.37
2023-01-13T02:40:07.365Z,2.34
2023-01-13T02:41:18.994Z,2.17
2023-01-13T02:42:41.404Z,2.28
2023-01-13T02:43:43.695Z,2.34
2023-01-13T02:45:04.812Z,2.16
2023-01-13T02:46:23.923Z,2.25
2023-01-13T02:47:27.419Z,2.11
2023-01-13T02:48:31.643Z,2.10
2023-01-13T02:49:42.510Z,2.40
2023-01-13T02:50:54.109Z,2.34
2023-01-13T02:52:02.101Z,1.59
2023-01-13T02:53:20.259Z,2.50
2023-01-13T02:54:27.454Z,2.15
2023-01-13T02:55:37.955Z,2.39
2023-01-13T02:56:44.323Z,2.40
2023-01-13T02:57:48.361Z,2.38
2023-01-13T02:58:51.374Z,2.37
2023-01-13T02:59:55.762Z,1.49
2023-01-13T03:00:57.721Z,2.40
2023-01-13T03:01:59.825Z,1.41
2023-01-13T03:03:02.015Z,2.01
2023-01-13T03:04:14.541Z,2.38
2023-01-13T03:05:17.694Z,1.57
2023-01-13T03:06:41.739Z,2.33
2023-01-13T03:08:11.878Z,2.28
2023-01-13T03:09:27.971Z,2.41
2023-01-13T03:10:51.535Z,1.40
2023-01-13T03:12:17.561Z,2.35
2023-01-13T03:13:25.167Z,2.45
2023-01-13T03:14:56.647Z,2.44
2023-01-13T03:16:28.351Z,0.39
2023-01-13T03:17:49.485Z,2.29
2023-01-13T03:18:55.481Z,2.19
2023-01-13T03:20:16.072Z,1.37
2023-01-13T03:21:23.764Z,2.45
2023-01-13T03:22:44.977Z,2.49
2023-01-13T03:23:52.885Z,2.36
2023-01-13T03:25:35.256Z,2.53
2023-01-13T03:26:42.713Z,2.33
2023-01-13T03:27:53.809Z,2.31
2023-01-13T03:29:14.163Z,2.51
2023-01-13T03:30:41.951Z,2.49
2023-01-13T03:31:57.401Z,2.31
2023-01-13T03:33:09.238Z,2.50
2023-01-13T03:34:18.628Z,2.36
2023-01-13T03:35:34.388Z,1.40
2023-01-13T03:36:39.539Z,2.48
2023-01-13T03:37:47.610Z,2.35
2023-01-13T03:38:54.377Z,1.78
2023-01-13T03:40:02.507Z,2.48
2023-01-13T03:41:09.104Z,2.48
2023-01-13T03:42:20.683Z,2.24
2023-01-13T03:43:34.445Z,2.40
2023-01-13T03:44:52.666Z,1.20
2023-01-13T03:46:02.690Z,2.48
2023-01-13T03:47:11.392Z,2.55
2023-01-13T03:48:18.653Z,2.29
2023-01-13T03:49:24.351Z,2.30
2023-01-13T03:50:32.871Z,1.77
2023-01-13T03:51:39.318Z,2.42
2023-01-13T03:52:47.369Z,2.31
2023-01-13T03:54:01.255Z,0.98
2023-01-13T03:55:10.804Z,1.30
2023-01-13T03:56:19.201Z,2.10
2023-01-13T03:57:26.241Z,2.14
2023-01-13T03:58:33.795Z,2.43
2023-01-13T03:59:41.480Z,2.42
2023-01-13T04:00:58.571Z,2.44
2023-01-13T04:02:18.462Z,2.39
2023-01-13T04:03:27.604Z,2.01
2023-01-13T04:04:34.474Z,2.39
2023-01-13T04:05:42.197Z,2.36
2023-01-13T04:06:56.697Z,2.40
2023-01-13T04:08:09.851Z,2.46
2023-01-13T04:09:18.795Z,2.52
2023-01-13T04:10:46.755Z,2.48
2023-01-13T04:12:17.272Z,2.58
2023-01-13T04:13:23.489Z,2.23
2023-01-13T04:14:27.783Z,2.20
2023-01-13T04:15:34.075Z,2.51
2023-01-13T04:16:37.818Z,2.47
2023-01-13T04:17:39.674Z,2.46
2023-01-13T04:18:41.407Z,2.12
2023-01-13T04:19:43.105Z,2.38
2023-01-13T04:20:47.272Z,2.17
2023-01-13T04:21:48.906Z,2.37
2023-01-13T04:22:50.769Z,1.99
2023-01-13T04:23:52.400Z,1.30
2023-01-13T04:24:54.036Z,2.09
2023-01-13T04:25:56.501Z,2.42
2023-01-13T04:26:58.227Z,2.31
2023-01-13T04:27:59.923Z,2.46
2023-01-13T04:29:01.654Z,2.27
2023-01-13T04:30:04.650Z,2.52
2023-01-13T04:31:06.535Z,2.37
2023-01-13T04:32:08.234Z,2.46
2023-01-13T04:33:10.932Z,1.87
2023-01-13T04:34:12.871Z,2.35
2023-01-13T04:35:14.688Z,2.22
2023-01-13T04:36:16.728Z,2.24
2023-01-13T04:37:18.448Z,2.29
2023-01-13T04:38:21.448Z,0.37
2023-01-13T04:39:23.128Z,1.99
2023-01-13T04:40:24.855Z,2.22
2023-01-13T04:41:26.592Z,2.37
2023-01-13T04:42:28.281Z,2.36
2023-01-13T04:43:30.069Z,2.10
2023-01-13T04:44:31.808Z,1.95
2023-01-13T04:45:34.015Z,2.16
2023-01-13T04:46:35.825Z,2.28
2023-01-13T04:47:37.824Z,2.12
2023-01-13T04:48:39.756Z,2.21
2023-01-13T04:49:41.480Z,2.09
2023-01-13T04:50:43.221Z,2.02
2023-01-13T04:51:44.953Z,2.09
2023-01-13T04:52:47.717Z,2.09
2023-01-13T04:53:49.407Z,1.66
2023-01-13T04:54:51.157Z,1.57
2023-01-13T04:55:52.936Z,1.75
2023-01-13T04:56:54.682Z,0.40
2023-01-13T04:58:00.955Z,1.80
2023-01-13T04:59:02.811Z,2.11
2023-01-13T05:00:10.135Z,2.18
2023-01-13T05:01:11.955Z,2.15
2023-01-13T05:02:13.835Z,1.93
2023-01-13T05:03:15.565Z,1.48
2023-01-13T05:04:17.343Z,2.04
2023-01-13T05:05:19.221Z,0.79
2023-01-13T05:06:21.048Z,1.98
2023-01-13T05:07:22.760Z,2.08
2023-01-13T05:08:24.423Z,2.12
2023-01-13T05:09:26.169Z,2.05
2023-01-13T05:10:28.083Z,2.00
2023-01-13T05:11:29.785Z,0.67
2023-01-13T05:12:31.558Z,2.02
2023-01-13T05:13:33.257Z,1.64
2023-01-13T05:14:34.948Z,2.05
2023-01-13T05:15:36.720Z,1.77
2023-01-13T05:16:38.540Z,2.06
2023-01-13T05:17:41.266Z,2.10
2023-01-13T05:18:43.055Z,2.09
2023-01-13T05:19:44.822Z,2.08
2023-01-13T05:20:46.735Z,1.74
2023-01-13T05:21:48.413Z,2.14
2023-01-13T05:22:50.096Z,2.09
2023-01-13T05:23:51.801Z,2.16
2023-01-13T05:24:53.537Z,2.06
2023-01-13T05:25:55.257Z,1.82
2023-01-13T05:26:56.964Z,0.61
2023-01-13T05:28:00.022Z,1.95
2023-01-13T05:29:01.743Z,1.88
2023-01-13T05:30:04.774Z,1.60
2023-01-13T05:31:06.585Z,2.05
2023-01-13T05:32:08.415Z,1.66
2023-01-13T05:33:11.482Z,1.58
2023-01-13T05:34:13.235Z,2.17
2023-01-13T05:35:15.054Z,1.85
2023-01-13T05:36:16.839Z,2.22
2023-01-13T05:37:18.838Z,1.60
2023-01-13T05:38:20.729Z,1.07
2023-01-13T05:39:22.467Z,2.15
2023-01-13T05:40:24.345Z,1.58
2023-01-13T05:41:26.137Z,2.05
2023-01-13T05:42:28.022Z,1.51
2023-01-13T05:43:30.127Z,2.12
2023-01-13T05:44:31.855Z,2.13
2023-01-13T05:45:33.651Z,1.96
2023-01-13T05:46:35.389Z,2.19
2023-01-13T05:47:37.264Z,2.23
2023-01-13T05:48:41.681Z,2.27
2023-01-13T05:49:43.398Z,2.16
2023-01-13T05:50:46.697Z,1.47
2023-01-13T05:51:48.387Z,2.39
2023-01-13T05:52:50.432Z,1.54
2023-01-13T05:53:52.470Z,2.37
2023-01-13T05:54:54.388Z,2.35
2023-01-13T05:55:56.546Z,2.37
2023-01-13T05:56:58.341Z,2.40
2023-01-13T05:58:00.169Z,2.46
2023-01-13T05:59:01.971Z,2.00
2023-01-13T06:00:05.431Z,2.10
2023-01-13T06:01:09.700Z,2.31
2023-01-13T06:02:11.683Z,2.24
2023-01-13T06:03:13.916Z,1.97
2023-01-13T06:04:15.800Z,2.11
2023-01-13T06:05:17.547Z,2.26
2023-01-13T06:06:19.365Z,2.36
2023-01-13T06:07:21.104Z,2.26
2023-01-13T06:08:22.775Z,2.44
2023-01-13T06:09:24.462Z,2.23
2023-01-13T06:10:27.050Z,2.36
2023-01-13T06:11:28.741Z,2.17
2023-01-13T06:12:30.484Z,2.40
2023-01-13T06:13:32.287Z,2.40
2023-01-13T06:14:36.469Z,2.43
2023-01-13T06:15:38.898Z,2.44
2023-01-13T06:16:40.956Z,2.19
2023-01-13T06:17:42.900Z,1.38
2023-01-13T06:18:44.630Z,2.28
2023-01-13T06:19:46.569Z,2.10
2023-01-13T06:20:48.308Z,2.23
2023-01-13T06:21:50.125Z,2.34
2023-01-13T06:22:53.815Z,2.23
2023-01-13T06:23:56.103Z,2.30
2023-01-13T06:24:58.658Z,2.30
2023-01-13T06:26:16.233Z,1.30
2023-01-13T06:27:18.841Z,2.05
2023-01-13T06:28:20.576Z,2.28
2023-01-13T06:29:22.297Z,2.40
2023-01-13T06:30:24.158Z,2.34
2023-01-13T06:31:27.269Z,2.51
2023-01-13T06:32:34.214Z,2.32
2023-01-13T06:33:43.892Z,2.43
2023-01-13T06:34:51.509Z,2.19
2023-01-13T06:35:58.251Z,2.51
2023-01-13T06:37:00.808Z,1.30
2023-01-13T06:38:05.954Z,1.71
2023-01-13T06:39:09.219Z,2.50
2023-01-13T06:40:13.865Z,2.64
2023-01-13T06:41:16.790Z,2.66
2023-01-13T06:42:18.562Z,1.51
2023-01-13T06:43:20.474Z,2.27
2023-01-13T06:44:23.948Z,2.33
2023-01-13T06:45:27.816Z,2.58
2023-01-13T06:46:29.847Z,2.59
2023-01-13T06:47:31.901Z,2.61
2023-01-13T06:48:34.691Z,2.63
2023-01-13T06:49:36.375Z,2.42
2023-01-13T06:50:38.311Z,2.69
2023-01-13T06:51:40.097Z,2.70
2023-01-13T06:52:41.741Z,2.67
2023-01-13T06:53:43.668Z,2.48
2023-01-13T06:54:45.453Z,2.49
2023-01-13T06:55:47.426Z,1.84
2023-01-13T06:56:49.166Z,2.77
2023-01-13T06:57:53.464Z,1.90
2023-01-13T06:58:55.200Z,2.51
2023-01-13T06:59:56.952Z,2.86
2023-01-13T07:01:02.210Z,2.70
2023-01-13T07:02:04.191Z,2.84
2023-01-13T07:03:10.954Z,2.28
2023-01-13T07:04:12.708Z,2.69
2023-01-13T07:05:15.215Z,2.10
2023-01-13T07:06:16.988Z,2.64
2023-01-13T07:07:18.642Z,2.57
2023-01-13T07:08:20.531Z,2.80
2023-01-13T07:09:22.259Z,2.65
2023-01-13T07:10:23.916Z,2.62
2023-01-13T07:11:25.669Z,2.83
2023-01-13T07:12:27.325Z,2.81
2023-01-13T07:13:28.955Z,2.85
2023-01-13T07:14:30.710Z,2.80
2023-01-13T07:15:32.565Z,2.78
2023-01-13T07:16:34.505Z,2.47
2023-01-13T07:17:36.259Z,2.20
2023-01-13T07:18:38.302Z,3.03
2023-01-13T07:19:40.045Z,2.84
2023-01-13T07:20:41.730Z,2.82
2023-01-13T07:21:43.491Z,2.49
2023-01-13T07:22:45.975Z,2.95
2023-01-13T07:23:48.464Z,3.02
2023-01-13T07:24:50.339Z,3.05
2023-01-13T07:25:52.059Z,2.35
2023-01-13T07:26:53.816Z,3.08
2023-01-13T07:27:57.726Z,3.12
2023-01-13T07:28:59.444Z,2.66
2023-01-13T07:30:01.129Z,2.87
2023-01-13T07:31:03.859Z,2.63
2023-01-13T07:32:05.987Z,3.09
2023-01-13T07:33:07.871Z,3.19
2023-01-13T07:34:09.596Z,2.51
2023-01-13T07:35:11.549Z,2.78
2023-01-13T07:36:14.192Z,1.97
2023-01-13T07:37:16.366Z,3.30
2023-01-13T07:38:18.093Z,3.34
2023-01-13T07:39:19.856Z,2.76
2023-01-13T07:40:21.567Z,3.14
2023-01-13T07:41:23.880Z,3.30
2023-01-13T07:42:25.908Z,2.99
2023-01-13T07:43:27.614Z,3.16
2023-01-13T07:44:29.394Z,3.02
2023-01-13T07:45:31.106Z,2.43
2023-01-13T07:46:33.817Z,2.65
2023-01-13T07:47:35.583Z,2.08
2023-01-13T07:48:37.250Z,3.46
2023-01-13T07:49:39.102Z,2.43
2023-01-13T07:50:42.731Z,3.55
2023-01-13T07:51:45.708Z,3.56
2023-01-13T07:52:47.693Z,2.24
2023-01-13T07:53:49.368Z,3.27
2023-01-13T07:54:51.064Z,2.94
2023-01-13T07:55:56.647Z,3.01
2023-01-13T07:56:58.320Z,3.61
2023-01-13T07:58:00.141Z,3.63
2023-01-13T07:59:02.453Z,3.70
2023-01-13T08:00:05.469Z,3.67
2023-01-13T08:01:13.427Z,3.48
2023-01-13T08:02:15.405Z,3.56
2023-01-13T08:03:17.320Z,3.67
2023-01-13T08:04:19.102Z,3.28
2023-01-13T08:05:20.921Z,3.58
2023-01-13T08:06:22.854Z,3.58
2023-01-13T08:07:31.108Z,3.72
2023-01-13T08:08:33.157Z,3.65
2023-01-13T08:09:35.039Z,3.45
2023-01-13T08:10:36.856Z,3.58
2023-01-13T08:11:38.581Z,3.50
2023-01-13T08:12:40.327Z,3.65
2023-01-13T08:13:57.541Z,3.68
2023-01-13T08:14:59.206Z,3.59
2023-01-13T08:16:07.069Z,3.69
2023-01-13T08:17:09.828Z,3.93
2023-01-13T08:18:12.320Z,3.60
2023-01-13T08:19:14.181Z,3.87
2023-01-13T08:20:16.146Z,3.94
2023-01-13T08:21:18.036Z,3.49
2023-01-13T08:22:19.819Z,3.79
2023-01-13T08:23:23.004Z,3.69
2023-01-13T08:24:24.802Z,3.47
2023-01-13T08:25:28.675Z,4.06
2023-01-13T08:26:30.354Z,3.80
2023-01-13T08:27:32.064Z,3.95
2023-01-13T08:28:34.122Z,3.70
2023-01-13T08:29:36.050Z,4.01
2023-01-13T08:30:37.950Z,3.34
2023-01-13T08:31:39.752Z,4.18
2023-01-13T08:32:44.362Z,3.80
2023-01-13T08:33:46.338Z,4.32
2023-01-13T08:34:48.069Z,3.84
2023-01-13T08:35:49.998Z,4.23
2023-01-13T08:36:52.105Z,4.39
2023-01-13T08:37:54.023Z,4.44
2023-01-13T08:38:55.689Z,4.18
2023-01-13T08:39:57.325Z,4.09
2023-01-13T08:40:59.159Z,3.08
2023-01-13T08:42:00.985Z,4.26
2023-01-13T08:43:02.752Z,4.36
2023-01-13T08:44:05.933Z,4.46
2023-01-13T08:45:08.900Z,4.50
2023-01-13T08:46:10.624Z,4.61
2023-01-13T08:47:12.410Z,4.34
2023-01-13T08:48:14.148Z,4.54
2023-01-13T08:49:16.790Z,1.13
2023-01-13T08:50:19.278Z,4.62
2023-01-13T08:51:21.000Z,3.78
2023-01-13T08:52:22.905Z,4.69
2023-01-13T08:53:24.617Z,4.70
2023-01-13T08:54:26.326Z,4.35
2023-01-13T08:55:28.019Z,4.40
2023-01-13T08:56:32.764Z,4.87
2023-01-13T08:57:35.971Z,4.83
2023-01-13T08:58:37.681Z,4.98
2023-01-13T08:59:39.439Z,4.88
2023-01-13T09:00:41.245Z,5.04
2023-01-13T09:01:43.430Z,5.18
2023-01-13T09:02:45.258Z,4.29
2023-01-13T09:03:47.062Z,5.30
2023-01-13T09:04:50.076Z,4.71
2023-01-13T09:05:51.883Z,4.98
2023-01-13T09:06:54.710Z,5.38
2023-01-13T09:07:56.376Z,4.82
2023-01-13T09:08:59.089Z,5.39
2023-01-13T09:10:01.749Z,5.48
2023-01-13T09:11:03.566Z,5.38
2023-01-13T09:12:05.771Z,5.48
2023-01-13T09:13:09.008Z,5.42
2023-01-13T09:14:10.734Z,5.40
2023-01-13T09:15:13.125Z,5.15
2023-01-13T09:16:14.951Z,5.04
2023-01-13T09:17:16.835Z,5.21
2023-01-13T09:18:18.508Z,5.16
2023-01-13T09:19:20.232Z,4.76
2023-01-13T09:20:21.914Z,5.13
2023-01-13T09:21:23.690Z,4.85
2023-01-13T09:22:25.355Z,5.28
2023-01-13T09:23:27.068Z,4.56
2023-01-13T09:24:29.416Z,3.31
2023-01-13T09:25:31.704Z,5.22
2023-01-13T09:26:33.581Z,5.14
2023-01-13T09:27:35.384Z,5.08
2023-01-13T09:28:37.183Z,4.52
2023-01-13T09:29:39.069Z,5.05
2023-01-13T09:30:40.764Z,5.21
2023-01-13T09:31:44.376Z,5.17
2023-01-13T09:32:46.259Z,4.72
2023-01-13T09:33:48.129Z,5.03
2023-01-13T09:34:49.902Z,5.16
2023-01-13T09:35:51.601Z,5.17
2023-01-13T09:36:54.297Z,5.03
2023-01-13T09:37:56.231Z,5.15
2023-01-13T09:38:57.990Z,5.22
2023-01-13T09:40:00.442Z,5.07
2023-01-13T09:41:02.409Z,4.82
2023-01-13T09:42:28.097Z,4.00
2023-01-13T09:43:38.394Z,4.63
2023-01-13T09:44:46.980Z,5.06
2023-01-13T09:45:57.709Z,4.28
2023-01-13T09:47:04.528Z,5.02
2023-01-13T09:48:29.222Z,5.17
2023-01-13T09:49:38.768Z,4.97
2023-01-13T09:50:51.012Z,5.00
2023-01-13T09:52:02.829Z,5.19
2023-01-13T09:53:13.089Z,4.02
2023-01-13T09:54:43.029Z,5.20
2023-01-13T09:55:44.874Z,5.06
2023-01-13T09:56:46.708Z,5.21
2023-01-13T09:57:48.763Z,4.98
2023-01-13T09:58:50.627Z,5.07
2023-01-13T09:59:52.475Z,5.15
2023-01-13T10:01:29.822Z,5.09
2023-01-13T10:02:42.582Z,4.19
2023-01-13T10:03:45.025Z,5.12
2023-01-13T10:05:11.717Z,5.19
2023-01-13T10:06:15.869Z,5.12
2023-01-13T10:07:17.743Z,4.55
2023-01-13T10:08:49.165Z,4.20
2023-01-13T10:09:53.761Z,4.08
2023-01-13T10:11:01.024Z,5.13
2023-01-13T10:12:03.216Z,5.04
2023-01-13T10:13:37.119Z,5.06
2023-01-13T10:14:42.987Z,5.28
2023-01-13T10:16:05.975Z,5.23
2023-01-13T10:17:13.478Z,5.34
2023-01-13T10:19:07.643Z,4.99
2023-01-13T10:20:18.043Z,4.30
2023-01-13T10:21:48.269Z,5.11
2023-01-13T10:23:26.801Z,5.37
2023-01-13T10:25:06.187Z,5.30
2023-01-13T10:26:46.536Z,5.36
2023-01-13T10:27:51.419Z,3.60
2023-01-13T10:28:54.854Z,5.29
2023-01-13T10:29:56.589Z,5.27
2023-01-13T10:30:58.342Z,5.53
2023-01-13T10:32:00.781Z,5.63
2023-01-13T10:33:12.116Z,4.87
2023-01-13T10:34:13.993Z,5.56
2023-01-13T10:35:15.944Z,5.75
2023-01-13T10:36:18.866Z,5.48
2023-01-13T10:37:24.076Z,5.69
2023-01-13T10:38:31.525Z,5.60
2023-01-13T10:39:42.695Z,5.72
2023-01-13T10:40:54.066Z,5.58
2023-01-13T10:42:04.432Z,4.54
2023-01-13T10:43:06.284Z,5.34
2023-01-13T10:44:17.287Z,5.77
2023-01-13T10:45:25.682Z,5.79
2023-01-13T10:46:28.909Z,4.91
2023-01-13T10:47:36.081Z,5.64
2023-01-13T10:48:43.456Z,5.80
2023-01-13T10:50:03.302Z,5.85
2023-01-13T10:51:18.850Z,5.68
2023-01-13T10:52:30.337Z,5.73
2023-01-13T10:53:32.235Z,5.71
2023-01-13T10:54:35.765Z,5.68
2023-01-13T10:55:37.464Z,5.45
2023-01-13T10:56:44.868Z,5.55
2023-01-13T10:57:46.537Z,5.39
2023-01-13T10:58:48.669Z,5.58
2023-01-13T10:59:51.230Z,5.43
2023-01-13T11:01:05.520Z,5.56
2023-01-13T11:02:26.521Z,5.52
2023-01-13T11:03:42.049Z,5.50
2023-01-13T11:04:54.479Z,5.37
2023-01-13T11:05:59.269Z,5.15
2023-01-13T11:07:02.602Z,5.37
2023-01-13T11:08:05.238Z,5.45
2023-01-13T11:09:19.927Z,4.87
2023-01-13T11:10:27.134Z,5.79
2023-01-13T11:11:43.230Z,5.87
2023-01-13T11:13:02.886Z,4.84
2023-01-13T11:14:20.458Z,5.67
2023-01-13T11:15:31.690Z,5.62
2023-01-13T11:16:35.850Z,5.77
2023-01-13T11:17:47.470Z,5.83
2023-01-13T11:18:58.675Z,3.91
2023-01-13T11:20:23.339Z,5.59
2023-01-13T11:21:30.251Z,4.65
2023-01-13T11:22:37.210Z,5.52
2023-01-13T11:23:48.977Z,4.59
2023-01-13T11:24:58.996Z,5.22
2023-01-13T11:26:36.940Z,5.83
2023-01-13T11:27:40.694Z,4.86
2023-01-13T11:28:46.437Z,5.91
2023-01-13T11:30:03.827Z,5.82
2023-01-13T11:31:28.104Z,5.86
2023-01-13T11:32:35.607Z,4.97
2023-01-13T11:33:52.426Z,5.79
2023-01-13T11:35:00.547Z,5.64
2023-01-13T11:36:11.056Z,5.61
2023-01-13T11:37:21.449Z,5.53
2023-01-13T11:38:37.485Z,5.44
2023-01-13T11:39:52.545Z,5.60
2023-01-13T11:40:57.346Z,5.45
2023-01-13T11:42:11.364Z,4.58
2023-01-13T11:43:25.776Z,4.58
2023-01-13T11:44:40.242Z,4.79
2023-01-13T11:46:01.049Z,5.73
2023-01-13T11:47:02.747Z,4.36
2023-01-13T11:48:04.947Z,5.81
2023-01-13T11:49:09.165Z,5.75
2023-01-13T11:50:33.611Z,5.84
2023-01-13T11:51:43.399Z,5.21
2023-01-13T11:52:48.213Z,5.16
2023-01-13T11:53:59.251Z,5.15
2023-01-13T11:55:23.288Z,5.81
2023-01-13T11:56:43.008Z,4.92
2023-01-13T11:58:19.507Z,5.79
2023-01-13T11:59:39.820Z,6.04
2023-01-13T12:01:14.090Z,5.96
2023-01-13T12:02:44.866Z,5.71
2023-01-13T12:03:59.173Z,5.97
2023-01-13T12:05:25.205Z,5.28
2023-01-13T12:06:39.789Z,5.82
2023-01-13T12:07:50.871Z,6.25
2023-01-13T12:09:26.255Z,6.15
2023-01-13T12:10:53.506Z,6.08
2023-01-13T12:12:12.995Z,6.14
2023-01-13T12:13:46.352Z,6.23
2023-01-13T12:14:53.676Z,5.43
2023-01-13T12:16:03.171Z,6.37
2023-01-13T12:17:16.273Z,6.16
2023-01-13T12:18:45.704Z,5.33
2023-01-13T12:19:50.211Z,6.50
2023-01-13T12:21:14.025Z,6.56
2023-01-13T12:22:32.003Z,6.66
2023-01-13T12:23:55.500Z,6.66
2023-01-13T12:25:13.202Z,5.80
2023-01-13T12:26:16.934Z,6.42
2023-01-13T12:27:18.575Z,6.61
2023-01-13T12:28:41.303Z,6.49
2023-01-13T12:29:44.502Z,6.16
2023-01-13T12:30:51.255Z,5.55
2023-01-13T12:31:53.147Z,5.61
2023-01-13T12:33:03.740Z,6.18
2023-01-13T12:34:26.897Z,6.26
2023-01-13T12:36:02.442Z,6.09
2023-01-13T12:37:22.381Z,5.80
2023-01-13T12:38:36.326Z,5.07
2023-01-13T12:39:56.158Z,6.05
2023-01-13T12:41:15.862Z,6.06
2023-01-13T12:42:24.189Z,4.99
2023-01-13T12:43:26.105Z,5.90
2023-01-13T12:44:27.816Z,5.85
2023-01-13T12:45:31.891Z,4.02
2023-01-13T12:46:35.267Z,5.91
2023-01-13T12:47:38.076Z,5.87
2023-01-13T12:48:51.965Z,5.88
2023-01-13T12:50:22.370Z,5.73
2023-01-13T12:51:29.425Z,5.72
2023-01-13T12:52:44.016Z,4.73
2023-01-13T12:53:45.787Z,5.48
2023-01-13T12:54:47.437Z,5.94
2023-01-13T12:55:52.655Z,5.90
2023-01-13T12:56:54.533Z,5.74
2023-01-13T12:57:57.616Z,4.88
2023-01-13T12:59:32.569Z,5.08
2023-01-13T13:00:40.163Z,5.86
2023-01-13T13:01:41.975Z,5.83
2023-01-13T13:03:12.629Z,5.81
2023-01-13T13:04:19.549Z,5.77
2023-01-13T13:05:23.808Z,5.88
2023-01-13T13:06:31.287Z,5.70
2023-01-13T13:07:41.459Z,4.76
2023-01-13T13:09:09.392Z,4.83
2023-01-13T13:10:19.974Z,5.83
2023-01-13T13:11:35.692Z,5.81
2023-01-13T13:12:43.390Z,5.79
2023-01-13T13:13:48.703Z,5.65
2023-01-13T13:14:50.523Z,5.67
2023-01-13T13:16:34.271Z,5.66
2023-01-13T13:17:35.967Z,5.64
2023-01-13T13:18:37.749Z,5.45
2023-01-13T13:19:41.001Z,5.60
2023-01-13T13:21:03.820Z,5.58
2023-01-13T13:22:12.135Z,5.54
2023-01-13T13:23:29.001Z,4.43
2023-01-13T13:24:30.933Z,5.40
2023-01-13T13:25:32.741Z,5.42
2023-01-13T13:26:43.891Z,5.53
2023-01-13T13:28:00.290Z,5.51
2023-01-13T13:29:26.725Z,5.51
2023-01-13T13:30:35.747Z,5.51
2023-01-13T13:31:56.022Z,5.49
2023-01-13T13:33:35.044Z,5.32
2023-01-13T13:34:36.764Z,5.45
2023-01-13T13:35:50.708Z,3.51
2023-01-13T13:36:58.337Z,5.36
2023-01-13T13:38:20.617Z,5.32
2023-01-13T13:39:28.915Z,5.09
2023-01-13T13:40:39.388Z,5.34
2023-01-13T13:41:46.368Z,5.32
2023-01-13T13:42:57.874Z,4.51
2023-01-13T13:44:22.650Z,5.13
2023-01-13T13:45:26.530Z,4.20
2023-01-13T13:46:33.532Z,5.30
2023-01-13T13:47:39.327Z,5.39
2023-01-13T13:48:51.367Z,5.35
2023-01-13T13:49:53.620Z,4.70
2023-01-13T13:50:58.749Z,4.19
2023-01-13T13:52:05.668Z,5.17
2023-01-13T13:53:08.195Z,5.20
2023-01-13T13:54:13.568Z,5.40
2023-01-13T13:55:19.689Z,4.58
2023-01-13T13:56:27.803Z,5.41
2023-01-13T13:57:39.443Z,5.35
2023-01-13T13:58:41.750Z,5.21
2023-01-13T13:59:43.484Z,5.11
2023-01-13T14:00:48.097Z,5.07
2023-01-13T14:01:56.179Z,5.00
2023-01-13T14:03:01.262Z,5.13
2023-01-13T14:04:25.054Z,5.25
2023-01-13T14:05:29.702Z,4.92
2023-01-13T14:06:31.519Z,4.41
2023-01-13T14:07:42.948Z,5.10
2023-01-13T14:08:49.913Z,4.10
2023-01-13T14:09:54.715Z,5.13
2023-01-13T14:10:56.775Z,5.16
2023-01-13T14:11:58.425Z,4.13
2023-01-13T14:13:15.049Z,5.06
2023-01-13T14:14:16.689Z,4.74
2023-01-13T14:15:36.965Z,4.13
2023-01-13T14:16:40.527Z,5.13
2023-01-13T14:17:42.327Z,5.16
2023-01-13T14:18:47.249Z,5.18
2023-01-13T14:19:55.683Z,4.94
2023-01-13T14:21:05.106Z,4.16
2023-01-13T14:22:06.836Z,4.70
2023-01-13T14:23:17.053Z,4.25
2023-01-13T14:24:18.793Z,3.72
2023-01-13T14:25:37.242Z,5.04
2023-01-13T14:26:38.902Z,4.96
2023-01-13T14:27:43.334Z,4.99
2023-01-13T14:28:45.225Z,4.97
2023-01-13T14:29:47.076Z,5.10
2023-01-13T14:30:51.067Z,4.97
2023-01-13T14:31:54.734Z,5.08
2023-01-13T14:32:56.883Z,5.08
2023-01-13T14:34:02.984Z,4.92
2023-01-13T14:35:24.678Z,5.02
2023-01-13T14:36:32.156Z,4.95
2023-01-13T14:37:38.566Z,4.95
2023-01-13T14:38:41.539Z,4.95
2023-01-13T14:39:43.246Z,4.58
2023-01-13T14:40:45.149Z,4.60
2023-01-13T14:41:48.073Z,3.97
2023-01-13T14:43:13.394Z,4.88
2023-01-13T14:44:21.210Z,4.93
2023-01-13T14:45:26.488Z,3.59
2023-01-13T14:47:04.106Z,4.95
2023-01-13T14:48:09.343Z,3.90
2023-01-13T14:49:34.899Z,4.89
2023-01-13T14:50:37.672Z,4.97
2023-01-13T14:51:39.475Z,4.97
2023-01-13T14:52:50.482Z,4.04